Maxville, Missouri
Current Conditions -  °F | °C
As of 7:03 PM on Sunday 23 Nov 2014 (Local Time) from KCPS Reporting Station
Light Rain Light Rain  
Wind Chill: 53°   Ceiling: 500
Heat Index: 53°   Visibility: 2mi
Dew Point: 53°   Wind: 5mph
Humidity: 100%   Direction: 160°SSE
Pressure: 29.27"   Gusts: NA
Location:  38.4305°N, 90.3985°W
Report Text: KCPS 240103Z 16004KT 2SM -RA BR BKN005 OVC017 12/12 A2927 RMK AO2 P0001 T01170117
Loading
Personal Weather Stations






























Interactive Weather Map New forecast layout! Learn more

10-Day Weather Forecast

Advertisements
Track Severe Weather on mobile